sensor_id;sensor_type;location;lat;lon;timestamp;P1;durP1;ratioP1;P2;durP2;ratioP2
7485;SDS011;3784;54.098;9.998;2023-03-01T00:01:01;27.13;;;20.50;;
7485;SDS011;3784;54.098;9.998;2023-03-01T00:03:28;24.83;;;19.77;;
7485;SDS011;3784;54.098;9.998;2023-03-01T00:05:55;30.10;;;21.37;;
7485;SDS011;3784;54.098;9.998;2023-03-01T00:08:22;39.10;;;26.03;;
7485;SDS011;3784;54.098;9.998;2023-03-01T00:10:48;34.77;;;23.57;;
7485;SDS011;3784;54.098;9.998;2023-03-01T00:13:15;37.23;;;25.30;;
7485;SDS011;3784;54.098;9.998;2023-03-01T00:15:41;65.67;;;26.80;;
7485;SDS011;3784;54.098;9.998;2023-03-01T00:18:08;37.60;;;25.30;;
7485;SDS011;3784;54.098;9.998;2023-03-01T00:20:34;301.80;;;38.23;;
7485;SDS011;3784;54.098;9.998;2023-03-01T00:23:01;65.43;;;26.77;;
7485;SDS011;3784;54.098;9.998;2023-03-01T00:25:27;205.97;;;32.50;;
7485;SDS011;3784;54.098;9.998;2023-03-01T00:27:54;35.20;;;23.27;;
7485;SDS011;3784;54.098;9.998;2023-03-01T00:30:20;32.03;;;23.30;;
7485;SDS011;3784;54.098;9.998;2023-03-01T00:32:47;210.77;;;29.40;;
7485;SDS011;3784;54.098;9.998;2023-03-01T00:35:13;300.37;;;35.53;;
7485;SDS011;3784;54.098;9.998;2023-03-01T00:37:40;326.40;;;39.87;;
7485;SDS011;3784;54.098;9.998;2023-03-01T00:40:07;25.77;;;20.37;;
7485;SDS011;3784;54.098;9.998;2023-03-01T00:42:34;32.27;;;20.23;;
7485;SDS011;3784;54.098;9.998;2023-03-01T00:45:01;25.57;;;19.67;;
7485;SDS011;3784;54.098;9.998;2023-03-01T00:47:28;205.17;;;30.20;;
7485;SDS011;3784;54.098;9.998;2023-03-01T00:49:55;34.20;;;20.43;;
7485;SDS011;3784;54.098;9.998;2023-03-01T00:52:21;27.17;;;17.83;;
7485;SDS011;3784;54.098;9.998;2023-03-01T00:54:48;325.53;;;40.20;;
7485;SDS011;3784;54.098;9.998;2023-03-01T00:57:14;26.43;;;18.40;;
7485;SDS011;3784;54.098;9.998;2023-03-01T00:59:41;30.20;;;17.67;;
7485;SDS011;3784;54.098;9.998;2023-03-01T01:02:08;67.17;;;21.43;;
7485;SDS011;3784;54.098;9.998;2023-03-01T01:04:34;36.30;;;19.50;;
7485;SDS011;3784;54.098;9.998;2023-03-01T01:07:01;335.83;;;37.97;;
7485;SDS011;3784;54.098;9.998;2023-03-01T01:09:27;159.10;;;27.07;;
7485;SDS011;3784;54.098;9.998;2023-03-01T01:11:54;38.77;;;19.90;;
7485;SDS011;3784;54.098;9.998;2023-03-01T01:14:20;20.20;;;17.00;;
7485;SDS011;3784;54.098;9.998;2023-03-01T01:16:47;38.23;;;19.73;;
7485;SDS011;3784;54.098;9.998;2023-03-01T01:19:13;73.53;;;23.03;;
7485;SDS011;3784;54.098;9.998;2023-03-01T01:21:40;53.07;;;21.90;;
7485;SDS011;3784;54.098;9.998;2023-03-01T01:24:09;338.23;;;38.37;;
7485;SDS011;3784;54.098;9.998;2023-03-01T01:26:36;179.50;;;28.63;;
7485;SDS011;3784;54.098;9.998;2023-03-01T01:29:03;319.57;;;37.93;;
7485;SDS011;3784;54.098;9.998;2023-03-01T01:31:31;74.90;;;19.93;;
7485;SDS011;3784;54.098;9.998;2023-03-01T01:33:58;333.00;;;36.97;;
7485;SDS011;3784;54.098;9.998;2023-03-01T01:36:26;115.57;;;22.87;;
7485;SDS011;3784;54.098;9.998;2023-03-01T01:38:53;236.10;;;33.10;;
7485;SDS011;3784;54.098;9.998;2023-03-01T01:41:20;163.03;;;28.00;;
7485;SDS011;3784;54.098;9.998;2023-03-01T01:43:48;94.97;;;24.93;;
7485;SDS011;3784;54.098;9.998;2023-03-01T01:46:35;187.10;;;30.13;;
7485;SDS011;3784;54.098;9.998;2023-03-01T01:49:05;208.23;;;31.20;;
7485;SDS011;3784;54.098;9.998;2023-03-01T01:51:37;396.47;;;44.57;;
7485;SDS011;3784;54.098;9.998;2023-03-01T01:54:08;25.47;;;19.80;;
7485;SDS011;3784;54.098;9.998;2023-03-01T01:56:38;278.13;;;34.47;;
7485;SDS011;3784;54.098;9.998;2023-03-01T01:59:07;328.70;;;39.20;;
7485;SDS011;3784;54.098;9.998;2023-03-01T02:01:34;236.00;;;29.60;;
7485;SDS011;3784;54.098;9.998;2023-03-01T02:04:00;319.47;;;37.00;;
7485;SDS011;3784;54.098;9.998;2023-03-01T02:09:02;230.27;;;32.63;;
7485;SDS011;3784;54.098;9.998;2023-03-01T02:11:31;212.17;;;29.23;;
7485;SDS011;3784;54.098;9.998;2023-03-01T02:13:59;207.13;;;29.67;;
7485;SDS011;3784;54.098;9.998;2023-03-01T02:16:26;214.70;;;31.33;;
7485;SDS011;3784;54.098;9.998;2023-03-01T02:18:52;147.60;;;24.07;;
7485;SDS011;3784;54.098;9.998;2023-03-01T02:21:29;373.37;;;40.50;;
7485;SDS011;3784;54.098;9.998;2023-03-01T02:24:03;119.27;;;22.33;;
7485;SDS011;3784;54.098;9.998;2023-03-01T02:26:47;112.90;;;23.73;;
7485;SDS011;3784;54.098;9.998;2023-03-01T02:29:16;192.00;;;27.07;;
7485;SDS011;3784;54.098;9.998;2023-03-01T02:31:42;405.73;;;44.23;;
7485;SDS011;3784;54.098;9.998;2023-03-01T02:34:11;31.60;;;18.03;;
7485;SDS011;3784;54.098;9.998;2023-03-01T02:36:40;226.27;;;30.93;;
7485;SDS011;3784;54.098;9.998;2023-03-01T02:39:11;99.27;;;21.97;;
7485;SDS011;3784;54.098;9.998;2023-03-01T02:41:43;121.93;;;22.67;;
7485;SDS011;3784;54.098;9.998;2023-03-01T02:44:13;76.07;;;20.57;;
7485;SDS011;3784;54.098;9.998;2023-03-01T02:46:47;100.87;;;22.17;;
7485;SDS011;3784;54.098;9.998;2023-03-01T02:49:19;125.30;;;24.83;;
7485;SDS011;3784;54.098;9.998;2023-03-01T02:54:33;71.53;;;18.90;;
7485;SDS011;3784;54.098;9.998;2023-03-01T02:57:05;79.30;;;18.90;;
7485;SDS011;3784;54.098;9.998;2023-03-01T02:59:32;79.30;;;22.30;;
7485;SDS011;3784;54.098;9.998;2023-03-01T03:02:18;59.60;;;19.97;;
7485;SDS011;3784;54.098;9.998;2023-03-01T03:07:35;166.80;;;27.10;;
7485;SDS011;3784;54.098;9.998;2023-03-01T03:10:04;65.90;;;19.97;;
7485;SDS011;3784;54.098;9.998;2023-03-01T03:12:32;61.53;;;20.10;;
7485;SDS011;3784;54.098;9.998;2023-03-01T03:14:58;138.33;;;22.77;;
7485;SDS011;3784;54.098;9.998;2023-03-01T03:17:25;80.20;;;21.40;;
7485;SDS011;3784;54.098;9.998;2023-03-01T03:19:51;117.27;;;23.57;;
7485;SDS011;3784;54.098;9.998;2023-03-01T03:22:18;121.73;;;25.23;;
7485;SDS011;3784;54.098;9.998;2023-03-01T03:24:44;107.87;;;21.57;;
7485;SDS011;3784;54.098;9.998;2023-03-01T03:27:11;96.87;;;24.07;;
7485;SDS011;3784;54.098;9.998;2023-03-01T03:29:37;101.00;;;22.13;;
7485;SDS011;3784;54.098;9.998;2023-03-01T03:32:04;218.53;;;33.40;;
7485;SDS011;3784;54.098;9.998;2023-03-01T03:34:30;30.60;;;16.53;;
7485;SDS011;3784;54.098;9.998;2023-03-01T03:36:57;39.70;;;16.63;;
7485;SDS011;3784;54.098;9.998;2023-03-01T03:39:26;262.53;;;36.10;;
7485;SDS011;3784;54.098;9.998;2023-03-01T03:41:53;217.47;;;27.53;;
7485;SDS011;3784;54.098;9.998;2023-03-01T03:44:20;109.43;;;21.00;;
7485;SDS011;3784;54.098;9.998;2023-03-01T03:46:47;139.40;;;23.47;;
7485;SDS011;3784;54.098;9.998;2023-03-01T03:49:13;210.50;;;28.07;;
7485;SDS011;3784;54.098;9.998;2023-03-01T03:51:40;205.57;;;27.83;;
7485;SDS011;3784;54.098;9.998;2023-03-01T03:54:06;76.40;;;21.87;;
7485;SDS011;3784;54.098;9.998;2023-03-01T03:56:33;241.90;;;32.10;;
7485;SDS011;3784;54.098;9.998;2023-03-01T03:58:59;133.37;;;26.13;;
7485;SDS011;3784;54.098;9.998;2023-03-01T04:01:26;220.03;;;32.23;;
7485;SDS011;3784;54.098;9.998;2023-03-01T04:03:52;186.27;;;30.87;;
7485;SDS011;3784;54.098;9.998;2023-03-01T04:06:20;180.70;;;29.87;;
7485;SDS011;3784;54.098;9.998;2023-03-01T04:08:47;201.13;;;31.20;;
7485;SDS011;3784;54.098;9.998;2023-03-01T04:11:17;86.40;;;24.90;;
7485;SDS011;3784;54.098;9.998;2023-03-01T04:13:53;49.23;;;18.87;;
7485;SDS011;3784;54.098;9.998;2023-03-01T04:16:21;134.30;;;25.43;;
7485;SDS011;3784;54.098;9.998;2023-03-01T04:18:48;128.03;;;24.57;;
7485;SDS011;3784;54.098;9.998;2023-03-01T04:21:15;162.23;;;22.70;;
7485;SDS011;3784;54.098;9.998;2023-03-01T04:23:42;197.43;;;28.10;;
7485;SDS011;3784;54.098;9.998;2023-03-01T04:26:08;30.50;;;16.13;;
7485;SDS011;3784;54.098;9.998;2023-03-01T04:28:36;107.10;;;20.83;;
7485;SDS011;3784;54.098;9.998;2023-03-01T04:31:07;240.13;;;33.03;;
7485;SDS011;3784;54.098;9.998;2023-03-01T04:33:43;166.83;;;27.50;;
7485;SDS011;3784;54.098;9.998;2023-03-01T04:36:11;36.40;;;16.83;;
7485;SDS011;3784;54.098;9.998;2023-03-01T04:38:40;317.50;;;35.80;;
7485;SDS011;3784;54.098;9.998;2023-03-01T04:41:08;196.03;;;28.07;;
7485;SDS011;3784;54.098;9.998;2023-03-01T04:43:37;23.47;;;14.60;;
7485;SDS011;3784;54.098;9.998;2023-03-01T04:46:04;49.10;;;17.33;;
7485;SDS011;3784;54.098;9.998;2023-03-01T04:48:35;22.73;;;15.23;;
7485;SDS011;3784;54.098;9.998;2023-03-01T04:51:02;92.43;;;20.57;;
7485;SDS011;3784;54.098;9.998;2023-03-01T04:53:31;62.10;;;18.50;;
7485;SDS011;3784;54.098;9.998;2023-03-01T04:55:58;70.57;;;18.40;;
7485;SDS011;3784;54.098;9.998;2023-03-01T04:58:25;76.17;;;18.70;;
7485;SDS011;3784;54.098;9.998;2023-03-01T05:00:53;30.33;;;14.97;;
7485;SDS011;3784;54.098;9.998;2023-03-01T05:03:20;37.30;;;15.77;;
7485;SDS011;3784;54.098;9.998;2023-03-01T05:05:48;66.80;;;17.37;;
7485;SDS011;3784;54.098;9.998;2023-03-01T05:08:16;50.70;;;18.23;;
7485;SDS011;3784;54.098;9.998;2023-03-01T05:10:45;34.93;;;15.83;;
7485;SDS011;3784;54.098;9.998;2023-03-01T05:13:13;24.87;;;15.97;;
7485;SDS011;3784;54.098;9.998;2023-03-01T05:15:41;31.43;;;16.40;;
7485;SDS011;3784;54.098;9.998;2023-03-01T05:18:08;100.87;;;21.13;;
7485;SDS011;3784;54.098;9.998;2023-03-01T05:20:37;100.83;;;21.47;;
7485;SDS011;3784;54.098;9.998;2023-03-01T05:23:04;327.53;;;35.00;;
7485;SDS011;3784;54.098;9.998;2023-03-01T05:25:34;25.93;;;16.07;;
7485;SDS011;3784;54.098;9.998;2023-03-01T05:28:06;28.27;;;16.20;;
7485;SDS011;3784;54.098;9.998;2023-03-01T05:30:36;23.93;;;16.27;;
7485;SDS011;3784;54.098;9.998;2023-03-01T05:33:02;226.93;;;33.73;;
7485;SDS011;3784;54.098;9.998;2023-03-01T05:35:29;118.73;;;23.83;;
7485;SDS011;3784;54.098;9.998;2023-03-01T05:37:55;149.53;;;24.43;;
7485;SDS011;3784;54.098;9.998;2023-03-01T05:40:23;217.87;;;29.03;;
7485;SDS011;3784;54.098;9.998;2023-03-01T05:42:52;189.63;;;28.30;;
7485;SDS011;3784;54.098;9.998;2023-03-01T05:45:21;38.50;;;17.93;;
7485;SDS011;3784;54.098;9.998;2023-03-01T05:47:49;178.33;;;29.07;;
7485;SDS011;3784;54.098;9.998;2023-03-01T05:50:20;121.37;;;23.30;;
7485;SDS011;3784;54.098;9.998;2023-03-01T05:52:58;60.97;;;17.93;;
7485;SDS011;3784;54.098;9.998;2023-03-01T05:55:27;32.90;;;17.37;;
7485;SDS011;3784;54.098;9.998;2023-03-01T05:57:55;36.67;;;17.87;;
7485;SDS011;3784;54.098;9.998;2023-03-01T06:00:21;32.70;;;16.70;;
7485;SDS011;3784;54.098;9.998;2023-03-01T06:02:48;24.03;;;16.50;;
7485;SDS011;3784;54.098;9.998;2023-03-01T06:05:15;49.63;;;17.37;;
7485;SDS011;3784;54.098;9.998;2023-03-01T06:07:42;35.43;;;17.00;;
7485;SDS011;3784;54.098;9.998;2023-03-01T06:10:09;22.33;;;15.27;;
7485;SDS011;3784;54.098;9.998;2023-03-01T06:12:37;20.30;;;15.30;;
7485;SDS011;3784;54.098;9.998;2023-03-01T06:15:05;23.63;;;15.87;;
7485;SDS011;3784;54.098;9.998;2023-03-01T06:17:33;41.97;;;16.77;;
7485;SDS011;3784;54.098;9.998;2023-03-01T06:20:37;60.33;;;19.47;;
7485;SDS011;3784;54.098;9.998;2023-03-01T06:22:56;46.20;;;18.00;;
7485;SDS011;3784;54.098;9.998;2023-03-01T06:25:24;36.57;;;15.83;;
7485;SDS011;3784;54.098;9.998;2023-03-01T06:27:51;187.80;;;24.03;;
7485;SDS011;3784;54.098;9.998;2023-03-01T06:30:21;85.30;;;18.33;;
7485;SDS011;3784;54.098;9.998;2023-03-01T06:32:49;84.43;;;18.90;;
7485;SDS011;3784;54.098;9.998;2023-03-01T06:35:16;42.70;;;15.10;;
7485;SDS011;3784;54.098;9.998;2023-03-01T06:37:44;114.23;;;18.77;;
7485;SDS011;3784;54.098;9.998;2023-03-01T06:40:12;181.00;;;28.37;;
7485;SDS011;3784;54.098;9.998;2023-03-01T06:42:40;222.90;;;31.17;;
7485;SDS011;3784;54.098;9.998;2023-03-01T06:45:08;133.70;;;25.53;;
7485;SDS011;3784;54.098;9.998;2023-03-01T06:47:35;133.63;;;22.90;;
7485;SDS011;3784;54.098;9.998;2023-03-01T06:50:02;37.43;;;16.60;;
7485;SDS011;3784;54.098;9.998;2023-03-01T06:52:29;26.10;;;14.97;;
7485;SDS011;3784;54.098;9.998;2023-03-01T06:54:55;81.23;;;18.57;;
7485;SDS011;3784;54.098;9.998;2023-03-01T06:57:22;21.77;;;13.27;;
7485;SDS011;3784;54.098;9.998;2023-03-01T06:59:49;38.47;;;14.43;;
7485;SDS011;3784;54.098;9.998;2023-03-01T07:02:15;25.40;;;14.87;;
7485;SDS011;3784;54.098;9.998;2023-03-01T07:04:42;37.13;;;15.20;;
7485;SDS011;3784;54.098;9.998;2023-03-01T07:07:08;23.67;;;14.07;;
7485;SDS011;3784;54.098;9.998;2023-03-01T07:09:35;171.63;;;26.53;;
7485;SDS011;3784;54.098;9.998;2023-03-01T07:12:02;195.27;;;26.90;;
7485;SDS011;3784;54.098;9.998;2023-03-01T07:14:28;86.10;;;21.77;;
7485;SDS011;3784;54.098;9.998;2023-03-01T07:16:55;148.53;;;27.77;;
7485;SDS011;3784;54.098;9.998;2023-03-01T07:19:22;100.10;;;20.50;;
7485;SDS011;3784;54.098;9.998;2023-03-01T07:21:49;269.17;;;34.93;;
7485;SDS011;3784;54.098;9.998;2023-03-01T07:24:15;115.97;;;23.00;;
7485;SDS011;3784;54.098;9.998;2023-03-01T07:26:42;29.63;;;14.10;;
7485;SDS011;3784;54.098;9.998;2023-03-01T07:29:09;20.50;;;13.40;;
7485;SDS011;3784;54.098;9.998;2023-03-01T07:31:36;75.20;;;18.30;;
7485;SDS011;3784;54.098;9.998;2023-03-01T07:34:02;96.70;;;22.43;;
7485;SDS011;3784;54.098;9.998;2023-03-01T07:36:29;109.40;;;21.00;;
7485;SDS011;3784;54.098;9.998;2023-03-01T07:38:56;65.93;;;17.87;;
7485;SDS011;3784;54.098;9.998;2023-03-01T07:41:24;75.47;;;16.70;;
7485;SDS011;3784;54.098;9.998;2023-03-01T07:43:50;146.30;;;22.20;;
7485;SDS011;3784;54.098;9.998;2023-03-01T07:46:17;94.87;;;17.33;;
7485;SDS011;3784;54.098;9.998;2023-03-01T07:48:45;104.23;;;18.30;;
7485;SDS011;3784;54.098;9.998;2023-03-01T07:51:12;152.33;;;19.13;;
7485;SDS011;3784;54.098;9.998;2023-03-01T07:53:38;95.37;;;14.73;;
7485;SDS011;3784;54.098;9.998;2023-03-01T07:56:09;71.40;;;14.53;;
7485;SDS011;3784;54.098;9.998;2023-03-01T07:58:38;95.50;;;15.10;;
7485;SDS011;3784;54.098;9.998;2023-03-01T08:01:06;69.77;;;14.73;;
7485;SDS011;3784;54.098;9.998;2023-03-01T08:03:37;36.57;;;13.03;;
7485;SDS011;3784;54.098;9.998;2023-03-01T08:06:05;20.70;;;12.00;;
7485;SDS011;3784;54.098;9.998;2023-03-01T08:08:32;29.80;;;13.10;;
7485;SDS011;3784;54.098;9.998;2023-03-01T08:11:00;29.53;;;11.10;;
7485;SDS011;3784;54.098;9.998;2023-03-01T08:13:27;16.47;;;11.00;;
7485;SDS011;3784;54.098;9.998;2023-03-01T08:15:54;82.50;;;14.47;;
7485;SDS011;3784;54.098;9.998;2023-03-01T08:18:21;92.80;;;16.57;;
7485;SDS011;3784;54.098;9.998;2023-03-01T08:20:47;112.83;;;17.43;;
7485;SDS011;3784;54.098;9.998;2023-03-01T08:23:14;65.50;;;14.13;;
7485;SDS011;3784;54.098;9.998;2023-03-01T08:25:41;215.03;;;20.13;;
7485;SDS011;3784;54.098;9.998;2023-03-01T08:28:07;45.43;;;12.13;;
7485;SDS011;3784;54.098;9.998;2023-03-01T08:30:34;15.57;;;10.07;;
7485;SDS011;3784;54.098;9.998;2023-03-01T08:33:00;24.07;;;13.00;;
7485;SDS011;3784;54.098;9.998;2023-03-01T08:35:27;46.70;;;15.37;;
7485;SDS011;3784;54.098;9.998;2023-03-01T08:37:53;48.67;;;14.70;;
7485;SDS011;3784;54.098;9.998;2023-03-01T08:40:20;63.80;;;14.83;;
7485;SDS011;3784;54.098;9.998;2023-03-01T08:42:46;157.47;;;22.47;;
7485;SDS011;3784;54.098;9.998;2023-03-01T08:45:13;52.20;;;13.20;;
7485;SDS011;3784;54.098;9.998;2023-03-01T08:47:44;45.83;;;13.53;;
7485;SDS011;3784;54.098;9.998;2023-03-01T08:50:11;263.20;;;30.87;;
7485;SDS011;3784;54.098;9.998;2023-03-01T08:52:38;34.47;;;12.90;;
7485;SDS011;3784;54.098;9.998;2023-03-01T08:55:04;90.70;;;18.40;;
7485;SDS011;3784;54.098;9.998;2023-03-01T08:57:32;85.67;;;15.73;;
7485;SDS011;3784;54.098;9.998;2023-03-01T08:59:58;89.47;;;15.33;;
7485;SDS011;3784;54.098;9.998;2023-03-01T09:02:24;62.30;;;11.77;;
7485;SDS011;3784;54.098;9.998;2023-03-01T09:04:51;56.93;;;12.27;;
7485;SDS011;3784;54.098;9.998;2023-03-01T09:07:17;33.33;;;10.73;;
7485;SDS011;3784;54.098;9.998;2023-03-01T09:09:44;26.23;;;11.13;;
7485;SDS011;3784;54.098;9.998;2023-03-01T09:12:10;54.97;;;12.97;;
7485;SDS011;3784;54.098;9.998;2023-03-01T09:14:37;31.20;;;10.20;;
7485;SDS011;3784;54.098;9.998;2023-03-01T09:17:04;31.87;;;11.10;;
7485;SDS011;3784;54.098;9.998;2023-03-01T09:19:31;41.53;;;12.07;;
7485;SDS011;3784;54.098;9.998;2023-03-01T09:21:58;29.30;;;10.67;;
7485;SDS011;3784;54.098;9.998;2023-03-01T09:24:24;76.23;;;12.03;;
7485;SDS011;3784;54.098;9.998;2023-03-01T09:26:55;39.63;;;10.90;;
7485;SDS011;3784;54.098;9.998;2023-03-01T09:29:22;16.13;;;7.77;;
7485;SDS011;3784;54.098;9.998;2023-03-01T09:31:49;13.77;;;9.03;;
7485;SDS011;3784;54.098;9.998;2023-03-01T09:34:16;22.07;;;9.60;;
7485;SDS011;3784;54.098;9.998;2023-03-01T09:36:45;49.30;;;10.67;;
7485;SDS011;3784;54.098;9.998;2023-03-01T09:39:11;27.13;;;9.23;;
7485;SDS011;3784;54.098;9.998;2023-03-01T09:44:34;17.33;;;11.73;;
7485;SDS011;3784;54.098;9.998;2023-03-01T09:47:04;12.73;;;9.13;;
7485;SDS011;3784;54.098;9.998;2023-03-01T09:49:33;12.07;;;9.03;;
7485;SDS011;3784;54.098;9.998;2023-03-01T09:55:08;11.90;;;8.53;;
7485;SDS011;3784;54.098;9.998;2023-03-01T10:08:40;13.23;;;9.30;;
7485;SDS011;3784;54.098;9.998;2023-03-01T10:11:22;10.23;;;7.33;;
7485;SDS011;3784;54.098;9.998;2023-03-01T10:13:54;8.97;;;7.47;;
7485;SDS011;3784;54.098;9.998;2023-03-01T10:16:27;8.43;;;7.40;;
7485;SDS011;3784;54.098;9.998;2023-03-01T10:19:00;8.20;;;7.37;;
7485;SDS011;3784;54.098;9.998;2023-03-01T10:21:29;9.87;;;8.50;;
7485;SDS011;3784;54.098;9.998;2023-03-01T10:24:08;8.73;;;7.80;;
7485;SDS011;3784;54.098;9.998;2023-03-01T10:26:40;9.67;;;8.33;;
7485;SDS011;3784;54.098;9.998;2023-03-01T10:29:11;12.13;;;8.20;;
7485;SDS011;3784;54.098;9.998;2023-03-01T10:31:43;9.37;;;8.37;;
7485;SDS011;3784;54.098;9.998;2023-03-01T10:34:12;9.57;;;8.67;;
7485;SDS011;3784;54.098;9.998;2023-03-01T10:36:44;9.73;;;8.10;;
7485;SDS011;3784;54.098;9.998;2023-03-01T10:39:18;8.90;;;8.00;;
7485;SDS011;3784;54.098;9.998;2023-03-01T10:42:18;8.30;;;7.50;;
7485;SDS011;3784;54.098;9.998;2023-03-01T10:44:46;8.07;;;7.27;;
7485;SDS011;3784;54.098;9.998;2023-03-01T10:47:22;8.07;;;7.27;;
7485;SDS011;3784;54.098;9.998;2023-03-01T10:49:51;8.57;;;6.93;;
7485;SDS011;3784;54.098;9.998;2023-03-01T10:52:19;8.13;;;7.33;;
7485;SDS011;3784;54.098;9.998;2023-03-01T10:54:54;7.70;;;6.90;;
7485;SDS011;3784;54.098;9.998;2023-03-01T10:57:33;8.67;;;6.63;;
7485;SDS011;3784;54.098;9.998;2023-03-01T11:00:19;7.43;;;6.70;;
7485;SDS011;3784;54.098;9.998;2023-03-01T11:05:26;8.30;;;6.93;;
7485;SDS011;3784;54.098;9.998;2023-03-01T11:07:55;7.30;;;6.60;;
7485;SDS011;3784;54.098;9.998;2023-03-01T11:10:27;7.53;;;6.53;;
7485;SDS011;3784;54.098;9.998;2023-03-01T11:15:42;6.30;;;5.70;;
7485;SDS011;3784;54.098;9.998;2023-03-01T11:18:19;7.00;;;6.30;;
7485;SDS011;3784;54.098;9.998;2023-03-01T11:20:46;6.93;;;6.17;;
7485;SDS011;3784;54.098;9.998;2023-03-01T11:23:14;6.83;;;6.13;;
7485;SDS011;3784;54.098;9.998;2023-03-01T11:25:42;7.60;;;6.90;;
7485;SDS011;3784;54.098;9.998;2023-03-01T11:28:12;6.00;;;5.40;;
7485;SDS011;3784;54.098;9.998;2023-03-01T11:30:44;7.30;;;6.57;;
7485;SDS011;3784;54.098;9.998;2023-03-01T11:36:35;6.60;;;5.77;;
7485;SDS011;3784;54.098;9.998;2023-03-01T11:42:00;7.00;;;5.30;;
7485;SDS011;3784;54.098;9.998;2023-03-01T11:44:43;6.20;;;5.60;;
7485;SDS011;3784;54.098;9.998;2023-03-01T11:47:21;6.10;;;5.60;;
7485;SDS011;3784;54.098;9.998;2023-03-01T11:50:28;5.80;;;5.30;;
7485;SDS011;3784;54.098;9.998;2023-03-01T12:01:32;6.03;;;5.50;;
7485;SDS011;3784;54.098;9.998;2023-03-01T12:09:41;7.43;;;6.73;;
7485;SDS011;3784;54.098;9.998;2023-03-01T12:15:26;5.87;;;5.33;;
7485;SDS011;3784;54.098;9.998;2023-03-01T12:18:25;5.83;;;5.33;;
7485;SDS011;3784;54.098;9.998;2023-03-01T12:26:42;5.50;;;5.00;;
7485;SDS011;3784;54.098;9.998;2023-03-01T12:34:57;5.80;;;5.40;;
7485;SDS011;3784;54.098;9.998;2023-03-01T12:40:27;6.30;;;5.80;;
7485;SDS011;3784;54.098;9.998;2023-03-01T12:49:05;6.70;;;6.10;;
7485;SDS011;3784;54.098;9.998;2023-03-01T12:51:35;6.50;;;5.93;;
7485;SDS011;3784;54.098;9.998;2023-03-01T12:54:11;6.47;;;5.97;;
7485;SDS011;3784;54.098;9.998;2023-03-01T12:56:42;7.67;;;5.97;;
7485;SDS011;3784;54.098;9.998;2023-03-01T12:59:12;7.27;;;6.53;;
7485;SDS011;3784;54.098;9.998;2023-03-01T13:04:24;7.60;;;7.00;;
7485;SDS011;3784;54.098;9.998;2023-03-01T13:07:05;7.50;;;6.90;;
7485;SDS011;3784;54.098;9.998;2023-03-01T13:09:39;7.33;;;6.63;;
7485;SDS011;3784;54.098;9.998;2023-03-01T13:31:01;8.63;;;7.83;;
7485;SDS011;3784;54.098;9.998;2023-03-01T13:35:56;8.57;;;7.87;;
7485;SDS011;3784;54.098;9.998;2023-03-01T13:41:48;7.70;;;7.00;;
7485;SDS011;3784;54.098;9.998;2023-03-01T13:46:59;9.93;;;8.30;;
7485;SDS011;3784;54.098;9.998;2023-03-01T13:52:54;8.43;;;7.73;;
7485;SDS011;3784;54.098;9.998;2023-03-01T13:55:30;9.17;;;8.37;;
7485;SDS011;3784;54.098;9.998;2023-03-01T13:58:27;8.20;;;7.33;;
7485;SDS011;3784;54.098;9.998;2023-03-01T14:00:59;8.00;;;7.30;;
7485;SDS011;3784;54.098;9.998;2023-03-01T14:03:26;9.17;;;8.37;;
7485;SDS011;3784;54.098;9.998;2023-03-01T14:05:58;8.93;;;8.13;;
7485;SDS011;3784;54.098;9.998;2023-03-01T14:08:39;8.83;;;8.13;;
7485;SDS011;3784;54.098;9.998;2023-03-01T14:19:18;8.33;;;7.57;;
7485;SDS011;3784;54.098;9.998;2023-03-01T14:21:59;8.87;;;8.07;;
7485;SDS011;3784;54.098;9.998;2023-03-01T14:24:30;10.13;;;7.50;;
7485;SDS011;3784;54.098;9.998;2023-03-01T14:27:00;8.13;;;7.33;;
7485;SDS011;3784;54.098;9.998;2023-03-01T14:29:32;8.87;;;8.07;;
7485;SDS011;3784;54.098;9.998;2023-03-01T14:32:18;7.50;;;6.77;;
7485;SDS011;3784;54.098;9.998;2023-03-01T14:34:49;7.10;;;6.40;;
7485;SDS011;3784;54.098;9.998;2023-03-01T14:37:32;6.47;;;5.87;;
7485;SDS011;3784;54.098;9.998;2023-03-01T14:40:00;6.50;;;5.90;;
7485;SDS011;3784;54.098;9.998;2023-03-01T14:42:30;5.90;;;5.30;;
7485;SDS011;3784;54.098;9.998;2023-03-01T14:45:00;6.20;;;5.53;;
7485;SDS011;3784;54.098;9.998;2023-03-01T14:47:31;6.20;;;5.60;;
7485;SDS011;3784;54.098;9.998;2023-03-01T14:50:04;5.63;;;5.13;;
7485;SDS011;3784;54.098;9.998;2023-03-01T14:52:37;6.80;;;5.87;;
7485;SDS011;3784;54.098;9.998;2023-03-01T14:55:05;6.40;;;5.80;;
7485;SDS011;3784;54.098;9.998;2023-03-01T14:57:42;6.43;;;5.83;;
7485;SDS011;3784;54.098;9.998;2023-03-01T15:00:10;6.80;;;6.20;;
7485;SDS011;3784;54.098;9.998;2023-03-01T15:02:44;6.77;;;6.07;;
7485;SDS011;3784;54.098;9.998;2023-03-01T15:05:13;6.80;;;5.97;;
7485;SDS011;3784;54.098;9.998;2023-03-01T15:07:41;6.60;;;6.00;;
7485;SDS011;3784;54.098;9.998;2023-03-01T15:10:22;7.00;;;6.30;;
7485;SDS011;3784;54.098;9.998;2023-03-01T15:12:50;7.83;;;6.73;;
7485;SDS011;3784;54.098;9.998;2023-03-01T15:17:55;7.60;;;6.90;;
7485;SDS011;3784;54.098;9.998;2023-03-01T15:20:23;8.27;;;7.57;;
7485;SDS011;3784;54.098;9.998;2023-03-01T15:22:52;12.63;;;8.20;;
7485;SDS011;3784;54.098;9.998;2023-03-01T15:25:22;9.33;;;8.33;;
7485;SDS011;3784;54.098;9.998;2023-03-01T15:27:50;10.40;;;9.40;;
7485;SDS011;3784;54.098;9.998;2023-03-01T15:30:18;10.20;;;8.40;;
7485;SDS011;3784;54.098;9.998;2023-03-01T15:32:48;10.90;;;9.80;;
7485;SDS011;3784;54.098;9.998;2023-03-01T15:35:38;14.23;;;10.90;;
7485;SDS011;3784;54.098;9.998;2023-03-01T15:38:31;11.60;;;10.50;;
7485;SDS011;3784;54.098;9.998;2023-03-01T15:43:59;12.03;;;10.83;;
7485;SDS011;3784;54.098;9.998;2023-03-01T15:46:27;12.07;;;10.87;;
7485;SDS011;3784;54.098;9.998;2023-03-01T15:48:59;12.03;;;10.73;;
7485;SDS011;3784;54.098;9.998;2023-03-01T15:51:29;12.47;;;11.17;;
7485;SDS011;3784;54.098;9.998;2023-03-01T15:54:05;13.70;;;12.03;;
7485;SDS011;3784;54.098;9.998;2023-03-01T15:56:33;13.10;;;11.80;;
7485;SDS011;3784;54.098;9.998;2023-03-01T15:59:00;13.40;;;11.87;;
7485;SDS011;3784;54.098;9.998;2023-03-01T16:01:28;13.40;;;11.80;;
7485;SDS011;3784;54.098;9.998;2023-03-01T16:03:55;16.60;;;13.63;;
7485;SDS011;3784;54.098;9.998;2023-03-01T16:06:22;13.77;;;12.47;;
7485;SDS011;3784;54.098;9.998;2023-03-01T16:08:49;14.90;;;12.20;;
7485;SDS011;3784;54.098;9.998;2023-03-01T16:11:16;15.47;;;13.93;;
7485;SDS011;3784;54.098;9.998;2023-03-01T16:13:44;14.87;;;13.40;;
7485;SDS011;3784;54.098;9.998;2023-03-01T16:16:12;17.27;;;15.43;;
7485;SDS011;3784;54.098;9.998;2023-03-01T16:18:46;20.47;;;18.27;;
7485;SDS011;3784;54.098;9.998;2023-03-01T16:21:18;18.07;;;16.17;;
7485;SDS011;3784;54.098;9.998;2023-03-01T16:23:47;16.97;;;15.00;;
7485;SDS011;3784;54.098;9.998;2023-03-01T16:26:13;17.63;;;15.83;;
7485;SDS011;3784;54.098;9.998;2023-03-01T16:28:41;16.53;;;14.77;;
7485;SDS011;3784;54.098;9.998;2023-03-01T16:31:08;17.27;;;14.90;;
7485;SDS011;3784;54.098;9.998;2023-03-01T16:33:36;41.57;;;26.90;;
7485;SDS011;3784;54.098;9.998;2023-03-01T16:36:09;30.33;;;21.30;;
7485;SDS011;3784;54.098;9.998;2023-03-01T16:38:37;20.80;;;17.73;;
7485;SDS011;3784;54.098;9.998;2023-03-01T16:41:04;18.00;;;16.20;;
7485;SDS011;3784;54.098;9.998;2023-03-01T16:43:31;29.87;;;23.80;;
7485;SDS011;3784;54.098;9.998;2023-03-01T16:45:58;18.00;;;16.10;;
7485;SDS011;3784;54.098;9.998;2023-03-01T16:48:25;20.53;;;17.90;;
7485;SDS011;3784;54.098;9.998;2023-03-01T16:50:56;22.23;;;19.70;;
7485;SDS011;3784;54.098;9.998;2023-03-01T16:53:23;17.90;;;16.00;;
7485;SDS011;3784;54.098;9.998;2023-03-01T16:55:53;20.77;;;16.37;;
7485;SDS011;3784;54.098;9.998;2023-03-01T16:58:23;21.43;;;18.07;;
7485;SDS011;3784;54.098;9.998;2023-03-01T17:00:51;41.97;;;18.10;;
7485;SDS011;3784;54.098;9.998;2023-03-01T17:03:20;25.33;;;20.20;;
7485;SDS011;3784;54.098;9.998;2023-03-01T17:05:47;36.93;;;23.17;;